Search for airport 
image banner adimage banner ad
image banner ad

LEANTQ - Antequera

Located in , Spain

ICAO - , IATA -

Data provided by Airmate  

General information

Coordinates: N37°6'1" W4°33'39"
Elevation is 1410 feet MSL.
 
Rated:
View ratings: [VIEW]


View others Airports in Málaga

Operational data

Open for public use
Current time UTC:
Current local time:
Weather at : LEMG - Malaga/Costa Del Sol ( 48 km )
METAR: LEMG 210200Z 31007KT CAVOK 12/09 Q1016 NOSIG
TAF: TAF LEMG 202300Z 2100/2124 29006KT 9999 FEW035 TX22/2113Z TN11/2106Z BECMG 2111/2113 14006KT BECMG 2118/2121 29004KT
View NOTAMs / SUP AIP / TFR affecting this airport [VIEW]
Communications frequencies: [VIEW]

Runways:

RWY identifierQFULength (ft)Width (ft)SurfaceLDA (ft)
09246149DIRT
27246149DIRT

Airport contact information

Other aviation service providers

Aviation club (not for profit)

Castillos En El Aire

Castillos En El Aire
+34654522306
+34654522306

Aeoclub Antequera

Aeoclub Antequera
presidente@aeroclubdeantequera.com+34609459977
+34609459977

Satellite view of LEANTQ